Time;durP1;ratioP1;P1;durP2;ratioP2;P2;SDS_P1;SDS_P2;PMS_P1;PMS_P2;Temp;Humidity;BMP_temperature;BMP_pressure;BME280_temperature;BME280_humidity;BME280_pressure;Samples;Min_cycle;Max_cycle;Signal;HPM_P1;HPM_P2
2020/12/25 00:00:26;;;;;;;6.00;4.97;;;3.40;99.90;2.20;95988.00;;;;6149670;23;20449;-69
2020/12/25 00:02:53;;;;;;;6.13;5.50;;;3.40;99.90;2.30;95987.00;;;;6150133;23;20173;-69
2020/12/25 00:05:21;;;;;;;6.87;5.47;;;3.40;99.90;2.20;95978.00;;;;6150382;23;20704;-68
2020/12/25 00:07:48;;;;;;;9.37;5.70;;;3.40;99.90;2.10;95961.00;;;;6150018;23;20189;-67
2020/12/25 00:10:18;;;;;;;8.27;5.20;;;3.30;99.90;2.10;95973.00;;;;6149472;23;20194;-67
2020/12/25 00:12:45;;;;;;;5.13;4.63;;;3.30;99.90;2.10;95974.00;;;;6149766;23;20186;-67
2020/12/25 00:15:14;;;;;;;7.40;5.17;;;3.30;99.90;1.90;95979.00;;;;6150296;23;20392;-67
2020/12/25 00:17:41;;;;;;;5.43;4.93;;;3.20;99.90;1.90;95988.00;;;;6149208;23;20405;-67
2020/12/25 00:20:08;;;;;;;8.97;5.70;;;3.20;99.90;1.90;95987.00;;;;6149874;23;20394;-67
2020/12/25 00:22:36;;;;;;;7.20;5.30;;;3.10;99.90;2.00;95993.00;;;;6149514;23;20436;-69
2020/12/25 00:25:03;;;;;;;5.43;4.53;;;3.10;99.90;1.90;95988.00;;;;6149780;23;20409;-69
2020/12/25 00:27:31;;;;;;;5.77;4.90;;;3.10;99.90;2.00;95996.00;;;;6149151;23;20433;-67
2020/12/25 00:29:58;;;;;;;9.03;4.50;;;3.10;99.90;1.90;95993.00;;;;6150150;23;20729;-67
2020/12/25 00:32:26;;;;;;;5.77;4.87;;;3.10;99.90;2.00;95985.00;;;;6149545;23;20732;-67
2020/12/25 00:34:54;;;;;;;7.40;5.47;;;3.10;99.90;1.90;95986.00;;;;6150194;23;20398;-67
2020/12/25 00:37:23;;;;;;;6.30;4.53;;;3.10;99.90;1.80;95982.00;;;;6149310;23;20402;-67
2020/12/25 00:39:50;;;;;;;7.83;5.27;;;3.10;99.90;1.80;95996.00;;;;6149624;23;20409;-67
2020/12/25 00:42:18;;;;;;;6.40;5.20;;;3.00;99.90;1.80;95991.00;;;;6149841;23;20456;-68
2020/12/25 00:44:45;;;;;;;8.50;6.57;;;3.00;99.90;1.80;95995.00;;;;6149816;23;20405;-67
2020/12/25 00:47:12;;;;;;;10.83;6.80;;;3.00;99.90;1.90;95997.00;;;;6149026;23;20405;-67
2020/12/25 00:49:41;;;;;;;7.87;7.10;;;3.00;99.90;1.90;96012.00;;;;6149788;23;20390;-67
2020/12/25 00:52:08;;;;;;;9.23;7.03;;;3.00;99.90;1.90;96013.00;;;;6148601;23;20769;-68
2020/12/25 00:54:35;;;;;;;9.70;7.47;;;3.00;99.90;1.90;96012.00;;;;6151461;23;20397;-67
2020/12/25 00:57:03;;;;;;;9.17;6.90;;;3.00;99.90;1.90;96018.00;;;;6151470;23;20706;-69
2020/12/25 00:59:30;;;;;;;6.13;5.53;;;3.00;99.90;1.80;96026.00;;;;6152238;23;20436;-67
2020/12/25 01:01:58;;;;;;;7.83;5.10;;;3.00;99.90;1.80;96029.00;;;;6151633;23;20449;-67
2020/12/25 01:04:25;;;;;;;6.57;5.23;;;3.00;99.90;1.80;96033.00;;;;6152121;23;20473;-68
2020/12/25 01:06:53;;;;;;;4.50;3.97;;;3.00;99.90;1.80;96035.00;;;;6150582;23;20186;-69
2020/12/25 01:09:24;;;;;;;4.50;4.07;;;3.00;99.90;1.70;96043.00;;;;6151514;23;20417;-67
2020/12/25 01:11:51;;;;;;;5.13;4.63;;;2.90;99.90;1.80;96036.00;;;;6151807;23;20217;-67
2020/12/25 01:14:19;;;;;;;6.33;5.37;;;2.90;99.90;1.80;96040.00;;;;6151815;23;20432;-68
2020/12/25 01:16:46;;;;;;;8.73;7.83;;;2.90;99.90;2.00;96042.00;;;;6151132;23;20177;-67
2020/12/25 01:19:13;;;;;;;6.90;6.20;;;3.00;99.90;2.00;96053.00;;;;6151265;23;20413;-68
2020/12/25 01:21:41;;;;;;;6.50;5.90;;;3.00;99.90;2.00;96048.00;;;;6150987;23;20861;-67
2020/12/25 01:24:09;;;;;;;6.23;5.27;;;3.10;99.90;1.90;96053.00;;;;6151963;23;20397;-67
2020/12/25 01:26:36;;;;;;;7.43;6.23;;;3.10;99.90;2.00;96046.00;;;;6151203;23;20409;-67
2020/12/25 01:29:04;;;;;;;7.40;6.60;;;3.10;99.90;2.00;96037.00;;;;6150747;23;20409;-67
2020/12/25 01:31:32;;;;;;;6.83;5.97;;;3.10;99.90;1.90;96041.00;;;;6151173;23;20441;-68
2020/12/25 01:33:59;;;;;;;5.90;5.40;;;3.10;99.90;1.80;96044.00;;;;6151729;23;20390;-68
2020/12/25 01:36:27;;;;;;;8.00;5.60;;;3.00;99.90;1.80;96048.00;;;;6151335;23;20747;-68
2020/12/25 01:38:55;;;;;;;8.67;7.17;;;3.00;99.90;1.90;96052.00;;;;6151230;23;20839;-68
2020/12/25 01:41:23;;;;;;;6.63;5.17;;;3.00;99.90;1.90;96044.00;;;;6150778;23;20455;-68
2020/12/25 01:43:50;;;;;;;7.93;6.80;;;3.00;99.90;1.90;96043.00;;;;6151231;23;20406;-68
2020/12/25 01:46:18;;;;;;;9.40;7.10;;;3.00;99.90;2.00;96054.00;;;;6150998;23;20432;-68
2020/12/25 01:48:46;;;;;;;7.63;5.77;;;3.00;99.90;1.90;96051.00;;;;6150913;23;20182;-68
2020/12/25 01:51:15;;;;;;;7.67;5.47;;;3.00;99.90;1.90;96050.00;;;;6151152;23;20440;-68
2020/12/25 01:53:43;;;;;;;8.77;7.03;;;3.10;99.90;2.00;96051.00;;;;6151346;23;20390;-67
2020/12/25 01:56:12;;;;;;;8.07;7.20;;;3.10;99.90;2.10;96051.00;;;;6151489;23;20409;-67
2020/12/25 01:58:42;;;;;;;9.37;7.07;;;3.10;99.90;2.10;96049.00;;;;6150272;23;20405;-68
2020/12/25 02:01:10;;;;;;;8.07;7.13;;;3.20;99.90;2.10;96046.00;;;;6150774;23;20847;-68
2020/12/25 02:03:38;;;;;;;7.37;6.23;;;3.20;99.90;2.20;96058.00;;;;6151078;23;20405;-68
2020/12/25 02:06:05;;;;;;;6.10;5.07;;;3.10;99.90;2.10;96045.00;;;;6150433;23;20397;-68
2020/12/25 02:08:33;;;;;;;6.90;6.20;;;3.30;99.90;2.10;96050.00;;;;6149837;23;20670;-68
2020/12/25 02:11:01;;;;;;;6.40;5.30;;;3.20;99.90;2.10;96057.00;;;;6150893;23;20683;-68
2020/12/25 02:13:30;;;;;;;5.67;5.17;;;3.20;99.90;2.10;96058.00;;;;6150569;23;20405;-68
2020/12/25 02:15:59;;;;;;;5.90;5.00;;;3.30;99.90;2.10;96058.00;;;;6151255;23;20409;-68
2020/12/25 02:18:34;;;;;;;6.83;5.97;;;3.20;99.90;2.10;96061.00;;;;6149961;23;20410;-68
2020/12/25 02:21:03;;;;;;;5.77;5.20;;;3.20;99.90;2.00;96060.00;;;;6150832;23;20783;-68
2020/12/25 02:23:31;;;;;;;7.20;6.40;;;3.20;99.90;2.00;96071.00;;;;6150442;23;20182;-68
2020/12/25 02:25:59;;;;;;;7.23;6.43;;;3.20;99.90;2.00;96058.00;;;;6151091;23;20852;-68
2020/12/25 02:28:26;;;;;;;10.23;8.37;;;3.10;99.90;2.00;96066.00;;;;6150670;23;20890;-68
2020/12/25 02:30:53;;;;;;;8.07;6.87;;;3.20;99.90;2.00;96067.00;;;;6150635;23;20608;-68
2020/12/25 02:33:21;;;;;;;12.90;8.10;;;3.00;99.90;2.00;96057.00;;;;6150849;23;20409;-68
2020/12/25 02:35:48;;;;;;;16.63;9.83;;;3.10;99.90;2.10;96072.00;;;;6151107;23;20409;-67
2020/12/25 02:38:16;;;;;;;9.30;7.43;;;3.20;99.90;2.10;96059.00;;;;6150106;23;20398;-68
2020/12/25 02:40:44;;;;;;;8.07;6.50;;;3.20;99.90;2.20;96063.00;;;;6149398;23;20245;-68
2020/12/25 02:43:11;;;;;;;7.47;5.40;;;3.20;99.90;2.20;96065.00;;;;6150512;23;20748;-68
2020/12/25 02:45:38;;;;;;;6.50;5.53;;;3.30;99.90;2.20;96071.00;;;;6150830;23;20581;-68
2020/12/25 02:48:06;;;;;;;10.63;7.17;;;3.30;99.90;2.20;96062.00;;;;6150340;23;20193;-68
2020/12/25 02:50:34;;;;;;;7.30;5.90;;;3.30;99.90;2.30;96060.00;;;;6151327;23;20390;-68
2020/12/25 02:53:02;;;;;;;5.03;4.53;;;3.30;99.90;2.30;96050.00;;;;6150631;23;20186;-68
2020/12/25 02:55:30;;;;;;;7.30;6.57;;;3.40;99.90;2.30;96045.00;;;;6150699;23;20596;-67
2020/12/25 02:57:58;;;;;;;6.87;6.13;;;3.40;99.90;2.30;96056.00;;;;6149644;23;20437;-67
2020/12/25 03:00:25;;;;;;;5.90;4.93;;;3.40;99.90;2.30;96055.00;;;;6150475;23;20186;-68
2020/12/25 03:02:53;;;;;;;5.97;4.93;;;3.40;99.90;2.30;96041.00;;;;6151004;23;20178;-68
2020/12/25 03:05:30;;;;;;;5.50;4.97;;;3.40;99.90;2.30;96057.00;;;;6151894;23;20166;-68
2020/12/25 03:07:58;;;;;;;6.03;5.43;;;3.40;99.90;2.30;96049.00;;;;6150825;23;20170;-68
2020/12/25 03:10:25;;;;;;;6.03;5.43;;;3.50;99.90;2.20;96045.00;;;;6151737;23;20201;-68
2020/12/25 03:12:54;;;;;;;5.13;4.63;;;3.40;99.90;2.20;96060.00;;;;6150804;23;20182;-68
2020/12/25 03:15:21;;;;;;;6.07;5.57;;;3.40;99.90;2.20;96039.00;;;;6150846;23;20197;-68
2020/12/25 03:17:49;;;;;;;6.83;5.70;;;3.40;99.90;2.20;96046.00;;;;6149886;23;20205;-67
2020/12/25 03:20:16;;;;;;;6.13;5.37;;;3.40;99.90;2.20;96040.00;;;;6150054;23;20397;-68
2020/12/25 03:22:43;;;;;;;5.90;5.40;;;3.30;99.90;2.20;96054.00;;;;6150240;23;20468;-67
2020/12/25 03:25:11;;;;;;;5.13;4.50;;;3.30;99.90;2.20;96055.00;;;;6150486;23;20186;-67
2020/12/25 03:27:38;;;;;;;5.40;4.60;;;3.40;99.90;2.20;96058.00;;;;6149486;23;20178;-67
2020/12/25 03:30:06;;;;;;;5.90;5.40;;;3.30;99.90;2.20;96057.00;;;;6150585;23;20186;-67
2020/12/25 03:32:34;;;;;;;6.73;5.10;;;3.30;99.90;2.20;96055.00;;;;6149999;23;20232;-67
2020/12/25 03:35:01;;;;;;;6.63;5.30;;;3.30;99.90;2.20;96046.00;;;;6150562;23;20427;-67
2020/12/25 03:37:28;;;;;;;4.77;4.30;;;3.40;99.90;2.20;96055.00;;;;6150088;23;20498;-67
2020/12/25 03:39:56;;;;;;;6.80;4.70;;;3.30;99.90;2.30;96056.00;;;;6150573;23;20170;-67
2020/12/25 03:42:23;;;;;;;4.57;4.17;;;3.40;99.90;2.30;96046.00;;;;6150087;23;20445;-67
2020/12/25 03:44:54;;;;;;;4.00;3.60;;;3.40;99.90;2.30;96051.00;;;;6150597;23;20397;-68
2020/12/25 03:47:24;;;;;;;4.97;3.67;;;3.40;99.90;2.30;96051.00;;;;6149721;23;20245;-67
2020/12/25 03:49:53;;;;;;;5.53;4.87;;;3.40;99.90;2.40;96050.00;;;;6150313;23;20363;-67
2020/12/25 03:52:21;;;;;;;7.60;5.00;;;3.40;99.90;2.40;96046.00;;;;6149953;23;20206;-67
2020/12/25 03:54:49;;;;;;;5.63;5.13;;;3.40;99.90;2.40;96057.00;;;;6149985;23;20186;-67
2020/12/25 03:57:16;;;;;;;5.67;4.60;;;3.50;99.90;2.40;96057.00;;;;6149986;23;20181;-67
2020/12/25 03:59:44;;;;;;;5.67;5.10;;;3.50;99.90;2.30;96051.00;;;;6149690;23;20182;-67
2020/12/25 04:02:11;;;;;;;6.90;6.20;;;3.50;99.90;2.30;96051.00;;;;6149875;23;20218;-68
2020/12/25 04:04:39;;;;;;;6.43;5.57;;;3.50;99.90;2.40;96046.00;;;;6150005;23;20173;-67
2020/12/25 04:07:07;;;;;;;6.47;5.77;;;3.50;99.90;2.30;96049.00;;;;6149518;23;20237;-68
2020/12/25 04:09:34;;;;;;;7.47;6.27;;;3.40;99.90;2.30;96051.00;;;;6149779;23;20201;-68
2020/12/25 04:12:02;;;;;;;5.80;5.27;;;3.40;99.90;2.40;96045.00;;;;6150121;23;20213;-68
2020/12/25 04:14:29;;;;;;;5.10;4.57;;;3.40;99.90;2.40;96039.00;;;;6151018;23;20186;-67
2020/12/25 04:16:56;;;;;;;5.63;4.97;;;3.50;99.90;2.40;96045.00;;;;6150706;23;20166;-67
2020/12/25 04:19:24;;;;;;;7.77;5.03;;;3.50;99.90;2.40;96039.00;;;;6150838;23;20194;-67
2020/12/25 04:21:52;;;;;;;5.57;5.00;;;3.50;99.90;2.30;96044.00;;;;6150569;23;20214;-67
2020/12/25 04:24:19;;;;;;;7.40;5.23;;;3.50;99.90;2.30;96045.00;;;;6151008;23;20647;-67
2020/12/25 04:26:48;;;;;;;8.17;5.63;;;3.40;99.90;2.20;96043.00;;;;6150968;23;20186;-67
2020/12/25 04:29:16;;;;;;;6.97;5.23;;;3.40;99.90;2.20;96042.00;;;;6150868;23;20623;-67
2020/12/25 04:31:43;;;;;;;6.60;5.47;;;3.40;99.90;2.20;96044.00;;;;6151266;23;20429;-67
2020/12/25 04:34:11;;;;;;;6.20;5.60;;;3.40;99.90;2.20;96038.00;;;;6151854;23;20437;-67
2020/12/25 04:36:38;;;;;;;6.43;4.87;;;3.40;99.90;2.20;96041.00;;;;6151146;23;20390;-67
2020/12/25 04:39:08;;;;;;;8.07;5.43;;;3.40;99.90;2.30;96038.00;;;;6150416;23;20890;-67
2020/12/25 04:41:36;;;;;;;5.57;4.97;;;3.40;99.90;2.30;96040.00;;;;6150967;23;20214;-67
2020/12/25 04:44:06;;;;;;;9.20;5.83;;;3.40;99.90;2.30;96034.00;;;;6150750;23;20417;-67
2020/12/25 04:46:34;;;;;;;6.07;4.83;;;3.40;99.90;2.30;96047.00;;;;6150579;23;20592;-67
2020/12/25 04:49:01;;;;;;;4.30;3.90;;;3.40;99.90;2.30;96047.00;;;;6150471;23;20390;-67
2020/12/25 04:51:29;;;;;;;6.23;5.67;;;3.40;99.90;2.30;96044.00;;;;6150771;23;20752;-67
2020/12/25 04:53:56;;;;;;;4.70;4.30;;;3.40;99.90;2.30;96043.00;;;;6150762;23;20162;-67
2020/12/25 04:56:25;;;;;;;7.37;5.30;;;3.40;99.90;2.30;96055.00;;;;6150298;23;20588;-68
2020/12/25 04:58:53;;;;;;;5.80;5.27;;;3.40;99.90;2.40;96057.00;;;;6150581;23;20269;-67
2020/12/25 05:01:21;;;;;;;6.93;5.60;;;3.40;99.90;2.40;96058.00;;;;6149321;23;20206;-67
2020/12/25 05:03:48;;;;;;;5.63;4.90;;;3.50;99.90;2.40;96056.00;;;;6148825;23;20193;-68
2020/12/25 05:06:18;;;;;;;6.47;5.87;;;3.40;99.90;2.40;96063.00;;;;6150844;23;20531;-68
2020/12/25 05:08:47;;;;;;;7.00;6.30;;;3.40;99.90;2.40;96061.00;;;;6150298;23;20635;-68
2020/12/25 05:11:17;;;;;;;6.17;4.90;;;3.50;99.90;2.40;96067.00;;;;6150595;23;20232;-68
2020/12/25 05:13:47;;;;;;;5.93;5.13;;;3.50;99.90;2.40;96070.00;;;;6150545;23;20186;-68
2020/12/25 05:16:16;;;;;;;6.77;5.20;;;3.50;99.90;2.40;96068.00;;;;6150943;23;20171;-68
2020/12/25 05:18:46;;;;;;;6.07;5.47;;;3.50;99.90;2.40;96069.00;;;;6150341;23;20530;-68
2020/12/25 05:21:17;;;;;;;6.90;5.60;;;3.50;99.90;2.40;96065.00;;;;6150702;23;20285;-68
2020/12/25 05:23:49;;;;;;;7.67;6.87;;;3.50;99.90;2.40;96061.00;;;;6151001;23;20171;-68
2020/12/25 05:26:17;;;;;;;9.13;7.07;;;3.50;99.90;2.30;96074.00;;;;6151065;23;20170;-68
2020/12/25 05:28:48;;;;;;;7.67;6.17;;;3.50;99.90;2.40;96074.00;;;;6150123;23;20171;-68
2020/12/25 05:31:16;;;;;;;6.57;5.37;;;3.50;99.90;2.30;96074.00;;;;6149821;23;20205;-68
2020/12/25 05:33:44;;;;;;;6.40;5.80;;;3.50;99.90;2.30;96075.00;;;;6150596;23;20632;-67
2020/12/25 05:36:14;;;;;;;7.00;6.30;;;3.40;99.90;2.30;96071.00;;;;6150598;23;20166;-68
2020/12/25 05:38:48;;;;;;;7.30;6.47;;;3.50;99.90;2.30;96060.00;;;;6150621;23;20185;-67
2020/12/25 05:41:17;;;;;;;6.23;5.63;;;3.40;99.90;2.30;96063.00;;;;6152710;23;20453;-69
2020/12/25 05:43:48;;;;;;;8.00;7.23;;;3.40;99.90;2.30;96065.00;;;;6152515;23;20186;-66
2020/12/25 05:46:16;;;;;;;6.73;5.97;;;3.40;99.90;2.30;96062.00;;;;6152139;23;20601;-67
2020/12/25 05:48:50;;;;;;;8.70;7.10;;;3.40;99.90;2.30;96062.00;;;;6152150;23;20386;-69
2020/12/25 05:51:22;;;;;;;8.03;7.23;;;3.50;99.90;2.30;96066.00;;;;6152058;23;20491;-69
2020/12/25 05:53:53;;;;;;;10.73;7.63;;;3.40;99.90;2.30;96062.00;;;;6152588;23;20186;-67
2020/12/25 05:56:21;;;;;;;8.10;6.40;;;3.40;99.90;2.30;96071.00;;;;6151635;23;20397;-68
2020/12/25 05:58:50;;;;;;;7.93;7.13;;;3.40;99.90;2.30;96078.00;;;;6151725;23;20569;-68
2020/12/25 06:01:18;;;;;;;9.30;7.70;;;3.40;99.90;2.20;96072.00;;;;6151966;23;20210;-68
2020/12/25 06:03:46;;;;;;;8.90;7.60;;;3.40;99.90;2.20;96079.00;;;;6152494;23;20193;-68
2020/12/25 06:06:14;;;;;;;8.67;7.83;;;3.40;99.90;2.20;96082.00;;;;6152056;23;20210;-68
2020/12/25 06:08:59;;;;;;;7.83;6.17;;;3.40;99.90;2.30;96074.00;;;;6151631;23;20386;-68
2020/12/25 06:11:30;;;;;;;11.53;6.90;;;3.40;99.90;2.30;96072.00;;;;6152017;23;20441;-67
2020/12/25 06:13:59;;;;;;;8.43;6.10;;;3.40;99.90;2.30;96075.00;;;;6152176;23;20166;-68
2020/12/25 06:16:28;;;;;;;6.53;5.87;;;3.40;99.90;2.30;96080.00;;;;6152410;23;20402;-68
2020/12/25 06:19:04;;;;;;;6.90;6.20;;;3.40;99.90;2.30;96074.00;;;;6152063;23;20189;-68
2020/12/25 06:21:42;;;;;;;6.77;5.73;;;3.40;99.90;2.30;96086.00;;;;6151607;23;20214;-68
2020/12/25 06:24:15;;;;;;;7.57;5.67;;;3.40;99.90;2.30;96077.00;;;;6152114;23;20174;-68
2020/12/25 06:26:43;;;;;;;6.77;5.73;;;3.40;99.90;2.30;96074.00;;;;6151902;23;20166;-68
2020/12/25 06:29:17;;;;;;;10.67;6.77;;;3.40;99.90;2.30;96074.00;;;;6151829;23;20205;-68
2020/12/25 06:31:48;;;;;;;6.90;6.20;;;3.40;99.90;2.30;96078.00;;;;6151077;23;20946;-68
2020/12/25 06:34:16;;;;;;;7.23;6.03;;;3.40;99.90;2.20;96065.00;;;;6152256;23;20173;-68
2020/12/25 06:36:45;;;;;;;10.70;6.10;;;3.40;99.90;2.20;96071.00;;;;6151819;23;20186;-67
2020/12/25 06:39:15;;;;;;;6.67;6.03;;;3.30;99.90;2.20;96073.00;;;;6151194;23;20208;-67
2020/12/25 06:41:43;;;;;;;7.07;6.33;;;3.40;99.90;2.20;96073.00;;;;6151279;23;20210;-67
2020/12/25 06:44:15;;;;;;;10.90;8.23;;;3.30;99.90;2.20;96074.00;;;;6151407;23;20906;-67
2020/12/25 06:46:48;;;;;;;7.90;6.43;;;3.30;99.90;2.20;96089.00;;;;6151740;23;20186;-68
2020/12/25 06:49:16;;;;;;;8.20;6.30;;;3.30;99.90;2.20;96097.00;;;;6151240;23;20166;-68
2020/12/25 06:51:46;;;;;;;6.57;5.97;;;3.30;99.90;2.30;96092.00;;;;6150468;23;20221;-67
2020/12/25 06:54:18;;;;;;;8.37;6.23;;;3.40;99.90;2.30;96088.00;;;;6151089;23;20327;-68
2020/12/25 06:56:48;;;;;;;7.70;6.73;;;3.40;99.90;2.30;96085.00;;;;6151095;23;20883;-67
2020/12/25 06:59:19;;;;;;;8.07;6.80;;;3.40;99.90;2.30;96096.00;;;;6150694;23;20202;-67
2020/12/25 07:01:48;;;;;;;8.60;6.10;;;3.40;99.90;2.30;96091.00;;;;6151676;23;20214;-67
2020/12/25 07:04:26;;;;;;;7.70;6.90;;;3.40;99.90;2.30;96101.00;;;;6152026;23;20413;-67
2020/12/25 07:06:56;;;;;;;6.30;5.50;;;3.30;99.90;2.30;96118.00;;;;6151095;23;20265;-67
2020/12/25 07:09:36;;;;;;;7.03;6.33;;;3.40;99.90;2.30;96110.00;;;;6151281;23;20189;-67
2020/12/25 07:12:09;;;;;;;6.70;5.73;;;3.40;99.90;2.30;96112.00;;;;6151274;23;20217;-67
2020/12/25 07:14:37;;;;;;;7.80;6.07;;;3.40;99.90;2.30;96110.00;;;;6151368;23;20186;-67
2020/12/25 07:17:05;;;;;;;7.87;6.33;;;3.40;99.90;2.30;96116.00;;;;6151100;23;20174;-67
2020/12/25 07:19:35;;;;;;;7.17;6.47;;;3.40;99.90;2.40;96105.00;;;;6151513;23;20186;-67
2020/12/25 07:22:05;;;;;;;6.27;5.57;;;3.40;99.90;2.40;96108.00;;;;6151373;23;20578;-67
2020/12/25 07:24:33;;;;;;;7.60;5.80;;;3.50;99.90;2.40;96116.00;;;;6151610;23;20523;-67
2020/12/25 07:27:01;;;;;;;7.47;6.60;;;3.50;99.90;2.40;96109.00;;;;6151066;23;20186;-67
2020/12/25 07:29:29;;;;;;;8.23;7.10;;;3.50;99.90;2.40;96115.00;;;;6151737;23;20253;-67
2020/12/25 07:31:57;;;;;;;9.20;6.73;;;3.50;99.90;2.40;96114.00;;;;6150867;23;20210;-67
2020/12/25 07:34:26;;;;;;;7.47;6.43;;;3.50;99.90;2.40;96119.00;;;;6150073;23;20490;-67
2020/12/25 07:36:56;;;;;;;7.10;6.23;;;3.50;99.90;2.40;96126.00;;;;6149968;23;20478;-67
2020/12/25 07:39:25;;;;;;;10.13;6.57;;;3.50;99.90;2.40;96122.00;;;;6151401;23;20209;-67
2020/12/25 07:41:53;;;;;;;8.03;7.23;;;3.50;99.90;2.40;96134.00;;;;6151164;23;20217;-68
2020/12/25 07:44:21;;;;;;;9.33;8.10;;;3.50;99.90;2.40;96118.00;;;;6151738;23;20878;-67
2020/12/25 07:46:50;;;;;;;11.27;8.70;;;3.50;99.90;2.40;96126.00;;;;6150544;23;20213;-68
2020/12/25 07:49:19;;;;;;;13.47;11.40;;;3.50;99.90;2.30;96128.00;;;;6150740;23;20170;-67
2020/12/25 07:51:49;;;;;;;13.93;10.17;;;3.40;99.90;2.40;96127.00;;;;6150471;23;20811;-67
2020/12/25 07:54:18;;;;;;;12.27;8.67;;;3.50;99.90;2.40;96140.00;;;;6151063;23;21100;-67
2020/12/25 07:56:45;;;;;;;10.50;8.00;;;3.50;99.90;2.50;96131.00;;;;6150743;23;20409;-67
2020/12/25 07:59:13;;;;;;;10.87;8.20;;;3.50;99.90;2.50;96131.00;;;;6149522;23;20644;-67
2020/12/25 08:01:41;;;;;;;11.10;8.93;;;3.60;99.90;2.60;96136.00;;;;6148916;23;20218;-67
2020/12/25 08:04:08;;;;;;;8.60;7.77;;;3.60;99.90;2.60;96135.00;;;;6150555;23;20185;-67
2020/12/25 08:06:37;;;;;;;9.60;7.33;;;3.60;99.90;2.70;96129.00;;;;6150129;23;20193;-67
2020/12/25 08:09:08;;;;;;;7.80;7.00;;;3.70;99.90;2.70;96128.00;;;;6150283;23;20217;-67
2020/12/25 08:11:36;;;;;;;7.37;6.40;;;3.70;99.90;2.70;96130.00;;;;6150468;23;20697;-67
2020/12/25 08:14:07;;;;;;;7.13;6.43;;;3.70;99.90;2.80;96132.00;;;;6150387;23;20213;-68
2020/12/25 08:16:37;;;;;;;9.87;8.30;;;3.80;99.90;2.70;96136.00;;;;6150132;23;20185;-67
2020/12/25 08:19:06;;;;;;;8.20;6.50;;;3.80;99.90;2.60;96138.00;;;;6150694;23;20167;-67
2020/12/25 08:21:37;;;;;;;8.53;7.23;;;3.80;99.90;2.60;96140.00;;;;6150138;23;20213;-67
2020/12/25 08:24:06;;;;;;;8.80;7.93;;;3.80;99.90;2.70;96141.00;;;;6150905;23;20166;-67
2020/12/25 08:26:38;;;;;;;10.93;9.60;;;3.80;99.90;2.80;96132.00;;;;6150197;23;20441;-67
2020/12/25 08:29:06;;;;;;;10.97;7.67;;;3.80;99.90;2.90;96138.00;;;;6150290;23;20174;-67
2020/12/25 08:31:38;;;;;;;17.87;13.17;;;3.80;99.90;2.90;96154.00;;;;6150518;23;20206;-67
2020/12/25 08:34:08;;;;;;;11.67;9.87;;;3.90;99.90;2.90;96149.00;;;;6150738;23;20174;-68
2020/12/25 08:36:38;;;;;;;12.17;9.37;;;4.00;99.90;3.00;96138.00;;;;6150432;23;20186;-68
2020/12/25 08:39:06;;;;;;;12.17;9.50;;;4.00;99.90;3.00;96140.00;;;;6149226;23;20510;-68
2020/12/25 08:41:34;;;;;;;10.60;9.23;;;4.00;99.90;3.10;96147.00;;;;6148726;23;20206;-67
2020/12/25 08:44:12;;;;;;;12.27;8.40;;;4.00;99.90;3.10;96150.00;;;;6150536;23;20631;-68
2020/12/25 08:46:40;;;;;;;9.60;8.00;;;4.10;99.90;3.10;96146.00;;;;6150943;23;20177;-67
2020/12/25 08:49:08;;;;;;;11.90;8.20;;;4.10;99.90;3.20;96147.00;;;;6150389;23;20188;-67
2020/12/25 08:51:38;;;;;;;7.97;7.23;;;4.20;99.90;3.10;96154.00;;;;6150086;23;20694;-67
2020/12/25 08:54:06;;;;;;;15.00;8.43;;;4.20;99.90;3.10;96148.00;;;;6151127;23;20178;-68
2020/12/25 08:56:36;;;;;;;9.20;7.03;;;4.20;99.90;3.20;96151.00;;;;6150060;23;20186;-68
2020/12/25 08:59:05;;;;;;;8.70;7.50;;;4.20;99.90;3.30;96166.00;;;;6149717;23;20170;-68
2020/12/25 09:01:37;;;;;;;8.17;6.17;;;4.20;99.90;3.40;96173.00;;;;6147766;23;20206;-67
2020/12/25 09:04:10;;;;;;;6.27;5.57;;;4.30;99.90;3.50;96171.00;;;;6150078;23;20170;-68
2020/12/25 09:06:38;;;;;;;9.30;6.40;;;4.40;99.90;3.40;96178.00;;;;6150278;23;20194;-67
2020/12/25 09:09:08;;;;;;;8.27;6.70;;;4.50;99.90;3.40;96164.00;;;;6149943;23;20751;-68
2020/12/25 09:11:36;;;;;;;14.27;9.47;;;4.40;99.90;3.50;96168.00;;;;6149648;23;20217;-68
2020/12/25 09:14:04;;;;;;;15.30;10.40;;;4.50;99.90;3.50;96173.00;;;;6150629;23;20198;-67
2020/12/25 09:16:31;;;;;;;11.60;8.13;;;4.50;99.90;3.60;96178.00;;;;6152021;23;20166;-67
2020/12/25 09:18:59;;;;;;;9.97;7.80;;;4.50;99.90;3.70;96179.00;;;;6151310;23;20608;-68
2020/12/25 09:21:28;;;;;;;8.57;7.40;;;4.60;99.90;3.70;96184.00;;;;6152332;23;20201;-68
2020/12/25 09:23:56;;;;;;;10.43;7.17;;;4.60;99.90;3.70;96184.00;;;;6152628;23;20523;-68
2020/12/25 09:26:24;;;;;;;8.80;7.13;;;4.70;99.90;3.90;96193.00;;;;6152843;23;20650;-68
2020/12/25 09:28:51;;;;;;;8.97;7.43;;;4.70;99.90;3.90;96177.00;;;;6151890;23;20170;-68
2020/12/25 09:31:19;;;;;;;8.67;6.13;;;4.80;99.90;4.00;96173.00;;;;6152397;23;20225;-67
2020/12/25 09:33:47;;;;;;;11.60;8.17;;;4.80;99.90;4.00;96177.00;;;;6152796;23;20201;-68
2020/12/25 09:36:14;;;;;;;11.07;8.13;;;4.90;99.90;4.20;96175.00;;;;6153021;23;20169;-68
2020/12/25 09:38:43;;;;;;;7.97;7.00;;;5.00;99.90;4.30;96176.00;;;;6151722;23;20190;-68
2020/12/25 09:41:14;;;;;;;8.33;7.20;;;5.20;99.90;4.30;96178.00;;;;6153217;23;20198;-68
2020/12/25 09:43:41;;;;;;;8.27;7.47;;;5.10;99.90;4.40;96184.00;;;;6152258;23;20206;-66
2020/12/25 09:46:09;;;;;;;8.27;6.70;;;5.20;99.90;4.50;96194.00;;;;6152565;23;20576;-67
2020/12/25 09:48:36;;;;;;;9.43;7.77;;;5.30;99.90;4.50;96188.00;;;;6151313;23;20201;-70
2020/12/25 09:51:04;;;;;;;9.27;6.13;;;5.30;99.90;4.50;96185.00;;;;6152887;23;20202;-67
2020/12/25 09:53:31;;;;;;;9.10;6.30;;;5.40;99.90;4.60;96191.00;;;;6152213;23;20186;-67
2020/12/25 09:55:59;;;;;;;7.33;6.53;;;5.40;99.90;4.60;96192.00;;;;6152416;23;20197;-67
2020/12/25 09:58:27;;;;;;;6.77;5.73;;;5.50;99.90;4.60;96199.00;;;;6151293;23;20186;-67
2020/12/25 10:00:55;;;;;;;7.07;6.37;;;5.50;99.90;4.70;96197.00;;;;6152510;23;20301;-69
2020/12/25 10:03:24;;;;;;;7.53;5.63;;;5.60;99.90;4.80;96199.00;;;;6152055;23;20213;-68
2020/12/25 10:05:52;;;;;;;14.00;7.33;;;5.60;99.90;4.70;96197.00;;;;6152507;23;20221;-67
2020/12/25 10:08:19;;;;;;;7.10;6.07;;;5.60;99.90;4.70;96197.00;;;;6151891;23;20170;-68
2020/12/25 10:10:46;;;;;;;6.57;5.30;;;5.60;99.90;4.60;96218.00;;;;6122224;23;20546;-67
2020/12/25 10:13:14;;;;;;;7.50;5.97;;;5.60;99.90;4.60;96199.00;;;;6121989;23;20178;-67
2020/12/25 10:15:42;;;;;;;5.47;4.70;;;5.60;99.90;4.50;96195.00;;;;6121741;23;20183;-67
2020/12/25 10:18:10;;;;;;;7.50;5.70;;;5.50;99.90;4.60;96195.00;;;;6121504;23;20171;-67
2020/12/25 10:20:37;;;;;;;10.40;5.37;;;5.50;99.90;4.50;96191.00;;;;6122085;23;20628;-68
2020/12/25 10:23:05;;;;;;;6.67;4.93;;;5.50;99.90;4.40;96195.00;;;;6119813;23;20261;-67
2020/12/25 10:25:32;;;;;;;6.83;5.73;;;5.50;99.90;4.40;96198.00;;;;6118987;23;20171;-67
2020/12/25 10:28:00;;;;;;;6.83;5.47;;;5.40;99.90;4.50;96206.00;;;;6119621;23;20266;-67
2020/12/25 10:30:27;;;;;;;6.53;5.80;;;5.40;99.90;4.60;96211.00;;;;6121771;23;20167;-67
2020/12/25 10:32:55;;;;;;;7.30;5.47;;;5.40;99.90;4.60;96219.00;;;;6120557;23;20197;-67
2020/12/25 10:35:23;;;;;;;7.70;6.47;;;5.50;99.90;4.60;96210.00;;;;6122718;23;20189;-67
2020/12/25 10:37:50;;;;;;;6.87;5.37;;;5.50;99.90;4.60;96223.00;;;;6121221;23;20617;-67
2020/12/25 10:40:27;;;;;;;6.63;5.30;;;5.40;99.90;4.60;96219.00;;;;6122340;23;20214;-67
2020/12/25 10:42:54;;;;;;;6.30;5.50;;;5.60;99.90;4.60;96217.00;;;;6121763;23;20194;-69
2020/12/25 10:45:22;;;;;;;8.00;6.73;;;5.60;99.90;4.60;96216.00;;;;6122528;23;20257;-67
2020/12/25 10:47:49;;;;;;;8.10;5.70;;;5.60;99.90;4.50;96211.00;;;;6121664;23;20191;-67
2020/12/25 10:50:18;;;;;;;7.20;6.50;;;5.50;99.90;4.50;96214.00;;;;6122361;23;20171;-67
2020/12/25 10:52:45;;;;;;;7.30;5.83;;;5.50;99.90;4.50;96221.00;;;;6121980;23;20182;-67
2020/12/25 10:55:13;;;;;;;13.70;10.13;;;5.50;99.90;4.50;96220.00;;;;6124933;23;20531;-66
2020/12/25 10:57:40;;;;;;;9.63;7.87;;;5.40;99.90;4.50;96231.00;;;;6122182;23;20194;-66
2020/12/25 11:00:08;;;;;;;8.93;8.03;;;5.50;99.90;4.50;96228.00;;;;6122303;23;20565;-67
2020/12/25 11:02:37;;;;;;;11.20;8.57;;;5.50;99.90;4.60;96219.00;;;;6121330;23;20221;-67
2020/12/25 11:05:04;;;;;;;9.80;8.80;;;5.50;99.90;4.60;96220.00;;;;6121817;23;20237;-67
2020/12/25 11:07:33;;;;;;;7.83;6.50;;;5.50;99.90;4.30;96227.00;;;;6121551;23;20518;-67
2020/12/25 11:10:01;;;;;;;11.70;8.73;;;5.50;99.90;4.30;96227.00;;;;6141951;23;20221;-67
2020/12/25 11:12:28;;;;;;;11.53;8.50;;;5.40;99.90;4.20;96228.00;;;;6151246;23;20210;-67